sensor_id;sensor_type;location;lat;lon;timestamp;pressure;altitude;pressure_sealevel;temperature;humidity
56040;BME280;43937;41.366;2.072;2023-01-25T00:00:38;101724.47;;;7.76;66.12
56040;BME280;43937;41.366;2.072;2023-01-25T00:03:03;101738.28;;;7.85;65.73
56040;BME280;43937;41.366;2.072;2023-01-25T00:05:29;101725.22;;;7.90;65.92
56040;BME280;43937;41.366;2.072;2023-01-25T00:07:54;101725.34;;;7.88;66.06
56040;BME280;43937;41.366;2.072;2023-01-25T00:10:20;101720.25;;;7.95;65.38
56040;BME280;43937;41.366;2.072;2023-01-25T00:12:45;101697.38;;;7.88;65.37
56040;BME280;43937;41.366;2.072;2023-01-25T00:15:11;101704.38;;;7.90;65.40
56040;BME280;43937;41.366;2.072;2023-01-25T00:17:40;101690.00;;;7.78;65.36
56040;BME280;43937;41.366;2.072;2023-01-25T00:20:06;101706.47;;;7.98;65.19
56040;BME280;43937;41.366;2.072;2023-01-25T00:22:32;101710.50;;;8.03;64.89
56040;BME280;43937;41.366;2.072;2023-01-25T00:24:57;101698.63;;;7.72;66.09
56040;BME280;43937;41.366;2.072;2023-01-25T00:27:23;101666.56;;;7.77;65.22
56040;BME280;43937;41.366;2.072;2023-01-25T00:29:48;101706.56;;;8.08;65.29
56040;BME280;43937;41.366;2.072;2023-01-25T00:34:47;101657.91;;;7.95;64.61
56040;BME280;43937;41.366;2.072;2023-01-25T00:37:23;101713.13;;;8.37;64.46
56040;BME280;43937;41.366;2.072;2023-01-25T00:39:50;101665.16;;;8.06;64.17
56040;BME280;43937;41.366;2.072;2023-01-25T00:42:17;101720.56;;;8.35;63.89
56040;BME280;43937;41.366;2.072;2023-01-25T00:44:43;101691.94;;;8.31;63.42
56040;BME280;43937;41.366;2.072;2023-01-25T00:47:10;101657.06;;;7.94;64.34
56040;BME280;43937;41.366;2.072;2023-01-25T00:49:36;101663.84;;;7.89;64.17
56040;BME280;43937;41.366;2.072;2023-01-25T00:52:02;101699.47;;;8.27;64.29
56040;BME280;43937;41.366;2.072;2023-01-25T00:54:28;101705.06;;;8.26;64.84
56040;BME280;43937;41.366;2.072;2023-01-25T00:56:53;101667.03;;;7.94;63.94
56040;BME280;43937;41.366;2.072;2023-01-25T00:59:21;101707.88;;;8.24;64.84
56040;BME280;43937;41.366;2.072;2023-01-25T01:01:47;101667.47;;;8.10;64.00
56040;BME280;43937;41.366;2.072;2023-01-25T01:04:12;101702.28;;;8.37;63.70
56040;BME280;43937;41.366;2.072;2023-01-25T01:06:38;101712.66;;;8.43;63.33
56040;BME280;43937;41.366;2.072;2023-01-25T01:09:06;101711.28;;;8.49;63.10
56040;BME280;43937;41.366;2.072;2023-01-25T01:11:32;101701.75;;;8.55;62.87
56040;BME280;43937;41.366;2.072;2023-01-25T01:13:59;101714.72;;;8.51;63.41
56040;BME280;43937;41.366;2.072;2023-01-25T01:16:25;101673.50;;;8.14;63.33
56040;BME280;43937;41.366;2.072;2023-01-25T01:18:51;101723.84;;;8.50;63.01
56040;BME280;43937;41.366;2.072;2023-01-25T01:21:17;101735.53;;;8.62;62.39
56040;BME280;43937;41.366;2.072;2023-01-25T01:23:43;101734.09;;;8.79;62.36
56040;BME280;43937;41.366;2.072;2023-01-25T01:26:12;101721.09;;;8.61;61.88
56040;BME280;43937;41.366;2.072;2023-01-25T01:28:38;101748.81;;;8.97;61.47
56040;BME280;43937;41.366;2.072;2023-01-25T01:31:24;101752.19;;;9.10;61.91
56040;BME280;43937;41.366;2.072;2023-01-25T01:33:54;101680.00;;;8.66;61.57
56040;BME280;43937;41.366;2.072;2023-01-25T01:36:23;101753.72;;;9.03;61.99
56040;BME280;43937;41.366;2.072;2023-01-25T01:38:49;101753.34;;;9.08;62.25
56040;BME280;43937;41.366;2.072;2023-01-25T01:41:15;101746.16;;;9.07;61.94
56040;BME280;43937;41.366;2.072;2023-01-25T01:43:41;101751.47;;;9.08;62.86
56040;BME280;43937;41.366;2.072;2023-01-25T01:49:05;101751.75;;;9.26;62.45
56040;BME280;43937;41.366;2.072;2023-01-25T01:51:57;101735.72;;;9.23;63.49
56040;BME280;43937;41.366;2.072;2023-01-25T01:54:30;101748.88;;;9.28;63.25
56040;BME280;43937;41.366;2.072;2023-01-25T01:57:04;101743.44;;;9.28;62.91
56040;BME280;43937;41.366;2.072;2023-01-25T01:59:37;101717.41;;;9.04;64.17
56040;BME280;43937;41.366;2.072;2023-01-25T02:02:04;101716.56;;;9.04;63.30
56040;BME280;43937;41.366;2.072;2023-01-25T02:04:30;101733.56;;;9.27;63.01
56040;BME280;43937;41.366;2.072;2023-01-25T02:07:04;101743.63;;;9.36;62.16
56040;BME280;43937;41.366;2.072;2023-01-25T02:09:34;101757.88;;;9.49;62.99
56040;BME280;43937;41.366;2.072;2023-01-25T02:12:00;101745.22;;;9.38;63.33
56040;BME280;43937;41.366;2.072;2023-01-25T02:14:30;101744.88;;;9.32;63.39
56040;BME280;43937;41.366;2.072;2023-01-25T02:16:56;101755.00;;;9.20;63.51
56040;BME280;43937;41.366;2.072;2023-01-25T02:19:53;101745.56;;;9.24;64.04
56040;BME280;43937;41.366;2.072;2023-01-25T02:22:25;101750.34;;;9.11;64.01
56040;BME280;43937;41.366;2.072;2023-01-25T02:25:11;101723.09;;;8.80;64.24
56040;BME280;43937;41.366;2.072;2023-01-25T02:27:46;101701.13;;;8.62;63.78
56040;BME280;43937;41.366;2.072;2023-01-25T02:30:13;101737.56;;;8.81;63.66
56040;BME280;43937;41.366;2.072;2023-01-25T02:32:39;101740.78;;;8.95;63.53
56040;BME280;43937;41.366;2.072;2023-01-25T02:35:04;101742.00;;;9.03;63.56
56040;BME280;43937;41.366;2.072;2023-01-25T02:37:30;101754.56;;;9.04;63.70
56040;BME280;43937;41.366;2.072;2023-01-25T02:39:55;101766.03;;;9.07;64.08
56040;BME280;43937;41.366;2.072;2023-01-25T02:42:21;101671.06;;;8.54;65.01
56040;BME280;43937;41.366;2.072;2023-01-25T02:44:47;101754.78;;;8.91;66.16
56040;BME280;43937;41.366;2.072;2023-01-25T02:47:14;101745.41;;;9.26;62.81
56040;BME280;43937;41.366;2.072;2023-01-25T02:49:40;101746.38;;;9.67;60.56
56040;BME280;43937;41.366;2.072;2023-01-25T02:52:06;101724.19;;;9.71;59.36
56040;BME280;43937;41.366;2.072;2023-01-25T02:54:31;101743.44;;;9.89;59.08
56040;BME280;43937;41.366;2.072;2023-01-25T02:56:57;101737.44;;;9.85;59.90
56040;BME280;43937;41.366;2.072;2023-01-25T02:59:22;101739.28;;;9.85;58.34
56040;BME280;43937;41.366;2.072;2023-01-25T03:01:48;101744.19;;;10.01;58.50
56040;BME280;43937;41.366;2.072;2023-01-25T03:04:14;101724.19;;;10.12;57.02
56040;BME280;43937;41.366;2.072;2023-01-25T03:06:40;101745.34;;;9.98;57.29
56040;BME280;43937;41.366;2.072;2023-01-25T03:09:08;101715.63;;;9.66;57.80
56040;BME280;43937;41.366;2.072;2023-01-25T03:11:34;101727.25;;;9.78;57.46
56040;BME280;43937;41.366;2.072;2023-01-25T03:13:59;101746.41;;;9.76;58.15
56040;BME280;43937;41.366;2.072;2023-01-25T03:16:25;101730.19;;;9.65;58.70
56040;BME280;43937;41.366;2.072;2023-01-25T03:18:54;101677.06;;;9.51;57.53
56040;BME280;43937;41.366;2.072;2023-01-25T03:21:21;101729.97;;;9.78;58.07
56040;BME280;43937;41.366;2.072;2023-01-25T03:23:47;101696.63;;;9.45;58.53
56040;BME280;43937;41.366;2.072;2023-01-25T03:26:20;101652.69;;;9.09;58.39
56040;BME280;43937;41.366;2.072;2023-01-25T03:28:46;101734.94;;;9.73;58.73
56040;BME280;43937;41.366;2.072;2023-01-25T03:31:13;101717.75;;;9.62;59.01
56040;BME280;43937;41.366;2.072;2023-01-25T03:33:40;101725.63;;;9.66;59.21
56040;BME280;43937;41.366;2.072;2023-01-25T03:36:07;101719.72;;;9.60;58.43
56040;BME280;43937;41.366;2.072;2023-01-25T03:38:33;101709.25;;;9.56;58.75
56040;BME280;43937;41.366;2.072;2023-01-25T03:40:59;101697.81;;;9.52;58.78
56040;BME280;43937;41.366;2.072;2023-01-25T03:43:25;101707.16;;;9.59;58.69
56040;BME280;43937;41.366;2.072;2023-01-25T03:45:55;101707.16;;;9.59;58.27
56040;BME280;43937;41.366;2.072;2023-01-25T03:48:21;101714.63;;;9.77;57.86
56040;BME280;43937;41.366;2.072;2023-01-25T03:50:55;101680.78;;;9.50;58.48
56040;BME280;43937;41.366;2.072;2023-01-25T03:53:25;101713.00;;;9.64;58.14
56040;BME280;43937;41.366;2.072;2023-01-25T03:56:06;101702.88;;;9.67;57.77
56040;BME280;43937;41.366;2.072;2023-01-25T03:58:33;101695.53;;;9.57;58.20
56040;BME280;43937;41.366;2.072;2023-01-25T04:01:00;101721.06;;;9.66;57.95
56040;BME280;43937;41.366;2.072;2023-01-25T04:03:29;101701.28;;;9.64;58.47
56040;BME280;43937;41.366;2.072;2023-01-25T04:05:55;101702.28;;;9.63;58.45
56040;BME280;43937;41.366;2.072;2023-01-25T04:08:21;101695.56;;;9.67;58.51
56040;BME280;43937;41.366;2.072;2023-01-25T04:10:55;101698.94;;;9.80;59.00
56040;BME280;43937;41.366;2.072;2023-01-25T04:13:23;101707.47;;;9.66;59.22
56040;BME280;43937;41.366;2.072;2023-01-25T04:15:49;101706.66;;;9.45;60.44
56040;BME280;43937;41.366;2.072;2023-01-25T04:18:15;101702.72;;;9.37;60.45
56040;BME280;43937;41.366;2.072;2023-01-25T04:20:41;101692.78;;;8.96;61.82
56040;BME280;43937;41.366;2.072;2023-01-25T04:23:07;101680.88;;;8.66;62.52
56040;BME280;43937;41.366;2.072;2023-01-25T04:25:34;101690.75;;;8.56;62.36
56040;BME280;43937;41.366;2.072;2023-01-25T04:28:00;101653.91;;;8.21;62.09
56040;BME280;43937;41.366;2.072;2023-01-25T04:30:26;101692.34;;;8.26;62.37
56040;BME280;43937;41.366;2.072;2023-01-25T04:32:51;101685.00;;;8.06;62.87
56040;BME280;43937;41.366;2.072;2023-01-25T04:35:17;101654.41;;;7.72;62.64
56040;BME280;43937;41.366;2.072;2023-01-25T04:37:52;101685.88;;;7.95;62.28
56040;BME280;43937;41.366;2.072;2023-01-25T04:40:17;101645.53;;;7.70;62.72
56040;BME280;43937;41.366;2.072;2023-01-25T04:42:43;101675.69;;;7.76;62.49
56040;BME280;43937;41.366;2.072;2023-01-25T04:45:09;101704.00;;;7.84;62.18
56040;BME280;43937;41.366;2.072;2023-01-25T04:47:34;101693.16;;;7.84;62.78
56040;BME280;43937;41.366;2.072;2023-01-25T04:50:00;101701.06;;;7.87;62.51
56040;BME280;43937;41.366;2.072;2023-01-25T04:52:25;101693.81;;;7.87;61.80
56040;BME280;43937;41.366;2.072;2023-01-25T04:54:51;101685.78;;;7.74;61.86
56040;BME280;43937;41.366;2.072;2023-01-25T04:57:16;101698.94;;;8.01;61.62
56040;BME280;43937;41.366;2.072;2023-01-25T04:59:42;101702.03;;;7.86;61.23
56040;BME280;43937;41.366;2.072;2023-01-25T05:02:07;101684.31;;;7.82;61.18
56040;BME280;43937;41.366;2.072;2023-01-25T05:04:33;101704.25;;;7.80;60.81
56040;BME280;43937;41.366;2.072;2023-01-25T05:06:58;101700.44;;;7.94;60.44
56040;BME280;43937;41.366;2.072;2023-01-25T05:09:24;101674.97;;;7.63;60.25
56040;BME280;43937;41.366;2.072;2023-01-25T05:11:49;101711.16;;;7.85;59.61
56040;BME280;43937;41.366;2.072;2023-01-25T05:14:15;101718.31;;;7.86;58.76
56040;BME280;43937;41.366;2.072;2023-01-25T05:16:40;101712.38;;;7.80;59.75
56040;BME280;43937;41.366;2.072;2023-01-25T05:19:08;101685.06;;;7.61;59.12
56040;BME280;43937;41.366;2.072;2023-01-25T05:21:34;101707.22;;;7.77;59.13
56040;BME280;43937;41.366;2.072;2023-01-25T05:24:18;101713.88;;;7.73;59.61
56040;BME280;43937;41.366;2.072;2023-01-25T05:26:43;101704.91;;;7.62;58.95
56040;BME280;43937;41.366;2.072;2023-01-25T05:29:28;101702.09;;;7.63;59.00
56040;BME280;43937;41.366;2.072;2023-01-25T05:31:54;101662.44;;;7.40;58.89
56040;BME280;43937;41.366;2.072;2023-01-25T05:34:19;101707.84;;;7.70;58.68
56040;BME280;43937;41.366;2.072;2023-01-25T05:36:45;101703.91;;;7.74;58.66
56040;BME280;43937;41.366;2.072;2023-01-25T05:39:10;101676.72;;;7.42;57.93
56040;BME280;43937;41.366;2.072;2023-01-25T05:41:36;101711.06;;;7.64;58.65
56040;BME280;43937;41.366;2.072;2023-01-25T05:44:02;101651.84;;;7.37;57.85
56040;BME280;43937;41.366;2.072;2023-01-25T05:46:28;101723.97;;;7.71;57.62
56040;BME280;43937;41.366;2.072;2023-01-25T05:48:54;101724.47;;;7.65;58.20
56040;BME280;43937;41.366;2.072;2023-01-25T05:51:19;101720.28;;;7.61;58.14
56040;BME280;43937;41.366;2.072;2023-01-25T05:53:45;101723.50;;;7.55;58.03
56040;BME280;43937;41.366;2.072;2023-01-25T05:56:10;101735.19;;;7.55;58.56
56040;BME280;43937;41.366;2.072;2023-01-25T05:58:37;101731.13;;;7.50;58.61
56040;BME280;43937;41.366;2.072;2023-01-25T06:01:04;101733.34;;;7.45;58.30
56040;BME280;43937;41.366;2.072;2023-01-25T06:03:30;101727.06;;;7.33;58.35
56040;BME280;43937;41.366;2.072;2023-01-25T06:05:57;101697.97;;;7.13;58.58
56040;BME280;43937;41.366;2.072;2023-01-25T06:08:24;101716.09;;;7.23;58.53
56040;BME280;43937;41.366;2.072;2023-01-25T06:10:49;101741.69;;;7.19;59.47
56040;BME280;43937;41.366;2.072;2023-01-25T06:13:15;101738.22;;;7.06;58.99
56040;BME280;43937;41.366;2.072;2023-01-25T06:15:41;101742.03;;;7.03;59.86
56040;BME280;43937;41.366;2.072;2023-01-25T06:18:06;101689.09;;;6.53;59.97
56040;BME280;43937;41.366;2.072;2023-01-25T06:20:32;101702.81;;;6.74;59.80
56040;BME280;43937;41.366;2.072;2023-01-25T06:22:58;101731.75;;;6.84;59.66
56040;BME280;43937;41.366;2.072;2023-01-25T06:25:24;101731.91;;;6.94;59.31
56040;BME280;43937;41.366;2.072;2023-01-25T06:27:49;101733.75;;;6.94;60.11
56040;BME280;43937;41.366;2.072;2023-01-25T06:30:15;101679.53;;;6.60;59.90
56040;BME280;43937;41.366;2.072;2023-01-25T06:32:41;101717.53;;;6.94;59.92
56040;BME280;43937;41.366;2.072;2023-01-25T06:35:07;101713.31;;;6.89;60.15
56040;BME280;43937;41.366;2.072;2023-01-25T06:37:33;101715.53;;;6.84;59.64
56040;BME280;43937;41.366;2.072;2023-01-25T06:39:58;101712.59;;;6.87;59.53
56040;BME280;43937;41.366;2.072;2023-01-25T06:42:24;101712.81;;;6.96;59.18
56040;BME280;43937;41.366;2.072;2023-01-25T06:44:49;101704.31;;;6.78;59.76
56040;BME280;43937;41.366;2.072;2023-01-25T06:47:15;101715.06;;;6.91;59.37
56040;BME280;43937;41.366;2.072;2023-01-25T06:49:40;101708.38;;;6.83;59.68
56040;BME280;43937;41.366;2.072;2023-01-25T06:52:06;101682.25;;;6.71;60.14
56040;BME280;43937;41.366;2.072;2023-01-25T06:54:32;101669.25;;;6.76;60.18
56040;BME280;43937;41.366;2.072;2023-01-25T06:56:58;101692.78;;;6.87;59.88
56040;BME280;43937;41.366;2.072;2023-01-25T06:59:24;101684.16;;;6.82;59.62
56040;BME280;43937;41.366;2.072;2023-01-25T07:01:49;101665.66;;;6.64;59.92
56040;BME280;43937;41.366;2.072;2023-01-25T07:04:15;101669.22;;;6.65;60.09
56040;BME280;43937;41.366;2.072;2023-01-25T07:06:40;101692.13;;;6.72;59.47
56040;BME280;43937;41.366;2.072;2023-01-25T07:09:09;101684.00;;;6.72;59.90
56040;BME280;43937;41.366;2.072;2023-01-25T07:11:35;101690.13;;;6.63;59.78
56040;BME280;43937;41.366;2.072;2023-01-25T07:14:01;101692.19;;;6.59;59.21
56040;BME280;43937;41.366;2.072;2023-01-25T07:16:27;101691.47;;;6.69;58.81
56040;BME280;43937;41.366;2.072;2023-01-25T07:18:53;101676.59;;;6.63;58.87
56040;BME280;43937;41.366;2.072;2023-01-25T07:21:21;101707.13;;;6.76;58.87
56040;BME280;43937;41.366;2.072;2023-01-25T07:23:50;101696.78;;;6.70;59.31
56040;BME280;43937;41.366;2.072;2023-01-25T07:26:21;101706.66;;;6.82;58.66
56040;BME280;43937;41.366;2.072;2023-01-25T07:28:47;101650.59;;;6.49;58.40
56040;BME280;43937;41.366;2.072;2023-01-25T07:31:15;101708.25;;;6.85;58.02
56040;BME280;43937;41.366;2.072;2023-01-25T07:33:41;101685.72;;;6.73;58.10
56040;BME280;43937;41.366;2.072;2023-01-25T07:36:07;101692.53;;;6.90;57.81
56040;BME280;43937;41.366;2.072;2023-01-25T07:38:34;101703.50;;;7.00;57.25
56040;BME280;43937;41.366;2.072;2023-01-25T07:41:00;101701.53;;;7.02;57.60
56040;BME280;43937;41.366;2.072;2023-01-25T07:43:26;101681.59;;;7.03;57.03
56040;BME280;43937;41.366;2.072;2023-01-25T07:46:08;101690.69;;;7.02;57.06
56040;BME280;43937;41.366;2.072;2023-01-25T07:49:46;101685.03;;;7.05;56.69
56040;BME280;43937;41.366;2.072;2023-01-25T07:52:12;101639.63;;;6.86;56.58
56040;BME280;43937;41.366;2.072;2023-01-25T07:54:38;101703.78;;;7.19;56.20
56040;BME280;43937;41.366;2.072;2023-01-25T07:57:03;101694.53;;;7.22;56.50
56040;BME280;43937;41.366;2.072;2023-01-25T07:59:29;101698.22;;;7.09;56.17
56040;BME280;43937;41.366;2.072;2023-01-25T08:01:56;101693.31;;;7.15;56.25
56040;BME280;43937;41.366;2.072;2023-01-25T08:05:22;101703.25;;;7.03;56.24
56040;BME280;43937;41.366;2.072;2023-01-25T08:07:50;101699.47;;;7.17;56.75
56040;BME280;43937;41.366;2.072;2023-01-25T08:10:15;101703.66;;;7.21;55.45
56040;BME280;43937;41.366;2.072;2023-01-25T08:12:44;101660.69;;;6.94;55.85
56040;BME280;43937;41.366;2.072;2023-01-25T08:15:13;101657.47;;;6.88;55.88
56040;BME280;43937;41.366;2.072;2023-01-25T08:17:39;101691.09;;;7.31;55.23
56040;BME280;43937;41.366;2.072;2023-01-25T08:20:05;101709.47;;;7.39;55.40
56040;BME280;43937;41.366;2.072;2023-01-25T08:22:32;101707.72;;;7.38;55.00
56040;BME280;43937;41.366;2.072;2023-01-25T08:24:57;101704.53;;;7.55;54.48
56040;BME280;43937;41.366;2.072;2023-01-25T08:29:43;101693.09;;;7.51;54.23
56040;BME280;43937;41.366;2.072;2023-01-25T08:37:37;101655.88;;;7.65;52.84
56040;BME280;43937;41.366;2.072;2023-01-25T08:44:06;101698.53;;;8.17;52.33
56040;BME280;43937;41.366;2.072;2023-01-25T08:46:34;101693.03;;;8.51;51.76
56040;BME280;43937;41.366;2.072;2023-01-25T09:39:59;101704.91;;;9.44;48.12
56040;BME280;43937;41.366;2.072;2023-01-25T09:45:23;101713.41;;;9.50;47.72
56040;BME280;43937;41.366;2.072;2023-01-25T09:51:27;101711.88;;;9.67;47.87
56040;BME280;43937;41.366;2.072;2023-01-25T09:54:39;101705.25;;;9.50;47.85
56040;BME280;43937;41.366;2.072;2023-01-25T10:01:04;101717.41;;;9.86;47.44
56040;BME280;43937;41.366;2.072;2023-01-25T10:08:37;101720.34;;;9.74;48.01
56040;BME280;43937;41.366;2.072;2023-01-25T10:18:25;101706.47;;;9.77;47.03
56040;BME280;43937;41.366;2.072;2023-01-25T10:21:02;101700.88;;;9.69;47.11
56040;BME280;43937;41.366;2.072;2023-01-25T10:34:47;101638.97;;;9.82;46.67
56040;BME280;43937;41.366;2.072;2023-01-25T10:37:19;101702.78;;;10.38;46.16
56040;BME280;43937;41.366;2.072;2023-01-25T10:41:57;101674.72;;;10.47;45.69
56040;BME280;43937;41.366;2.072;2023-01-25T10:45:15;101680.44;;;10.73;45.29
56040;BME280;43937;41.366;2.072;2023-01-25T10:47:54;101681.31;;;10.44;45.70
56040;BME280;43937;41.366;2.072;2023-01-25T10:57:31;101678.97;;;10.88;44.62
56040;BME280;43937;41.366;2.072;2023-01-25T11:01:55;101661.75;;;10.97;44.63
56040;BME280;43937;41.366;2.072;2023-01-25T11:04:29;101649.09;;;11.16;44.96
56040;BME280;43937;41.366;2.072;2023-01-25T11:06:55;101625.72;;;11.23;43.49
56040;BME280;43937;41.366;2.072;2023-01-25T11:29:14;101613.75;;;12.25;42.24
56040;BME280;43937;41.366;2.072;2023-01-25T11:33:40;101589.44;;;12.31;40.77
56040;BME280;43937;41.366;2.072;2023-01-25T11:56:06;101568.34;;;13.20;40.47
56040;BME280;43937;41.366;2.072;2023-01-25T12:22:42;101525.22;;;13.40;39.65
56040;BME280;43937;41.366;2.072;2023-01-25T12:29:44;101516.69;;;13.43;38.93
56040;BME280;43937;41.366;2.072;2023-01-25T13:48:24;101374.94;;;14.28;33.84
56040;BME280;43937;41.366;2.072;2023-01-25T13:52:16;101396.28;;;14.41;34.12
56040;BME280;43937;41.366;2.072;2023-01-25T14:03:05;101389.03;;;14.64;33.21
56040;BME280;43937;41.366;2.072;2023-01-25T14:21:43;101382.50;;;14.74;32.41
56040;BME280;43937;41.366;2.072;2023-01-25T14:32:25;101379.44;;;14.05;32.38
56040;BME280;43937;41.366;2.072;2023-01-25T14:43:36;101379.63;;;13.87;34.82
56040;BME280;43937;41.366;2.072;2023-01-25T14:47:42;101372.09;;;13.48;34.98
56040;BME280;43937;41.366;2.072;2023-01-25T14:50:40;101381.31;;;13.55;35.29
56040;BME280;43937;41.366;2.072;2023-01-25T14:56:41;101370.38;;;13.63;35.78
56040;BME280;43937;41.366;2.072;2023-01-25T15:01:25;101332.81;;;13.41;34.96
56040;BME280;43937;41.366;2.072;2023-01-25T15:11:38;101387.84;;;13.62;35.94
56040;BME280;43937;41.366;2.072;2023-01-25T15:35:39;101371.25;;;13.47;35.10
56040;BME280;43937;41.366;2.072;2023-01-25T18:46:21;101367.75;;;8.67;49.70
56040;BME280;43937;41.366;2.072;2023-01-25T21:52:59;101238.66;;;7.23;55.45
56040;BME280;43937;41.366;2.072;2023-01-25T23:48:24;101212.63;;;6.69;56.29
